Time;durP1;ratioP1;P1;durP2;ratioP2;P2;SDS_P1;SDS_P2;PMS_P1;PMS_P2;Temp;Humidity;BMP_temperature;BMP_pressure;BME280_temperature;BME280_humidity;BME280_pressure;Samples;Min_cycle;Max_cycle;Signal;HPM_P1;HPM_P2
2024/03/19 00:00:41;;;;;;;;;;;11.10;91.40;;;;;;5102332;28;19989;-83
2024/03/19 00:03:07;;;;;;;;;;;11.00;91.60;;;;;;5101987;28;20107;-83
2024/03/19 00:05:33;;;;;;;;;;;10.90;92.00;;;;;;5101619;28;20148;-83
2024/03/19 00:08:00;;;;;;;;;;;10.70;92.50;;;;;;5100713;28;20266;-84
2024/03/19 00:10:26;;;;;;;;;;;10.60;92.90;;;;;;5100491;28;19992;-83
2024/03/19 00:12:52;;;;;;;;;;;10.50;93.10;;;;;;5099872;28;20420;-83
2024/03/19 00:15:17;;;;;;;;;;;10.50;93.30;;;;;;5102226;28;20061;-83
2024/03/19 00:17:43;;;;;;;;;;;10.40;93.60;;;;;;5101162;28;19993;-84
2024/03/19 00:20:09;;;;;;;;;;;10.30;93.80;;;;;;5102151;28;20022;-85
2024/03/19 00:22:35;;;;;;;;;;;10.30;94.00;;;;;;5101902;28;19989;-84
2024/03/19 00:25:01;;;;;;;;;;;10.30;93.80;;;;;;5102096;28;19996;-84
2024/03/19 00:27:27;;;;;;;;;;;10.40;93.70;;;;;;5083465;28;20086;-84
2024/03/19 00:29:52;;;;;;;;;;;10.40;93.60;;;;;;5083912;28;19989;-83
2024/03/19 00:32:18;;;;;;;;;;;10.30;93.80;;;;;;5104331;28;20883;-83
2024/03/19 00:34:43;;;;;;;;;;;10.30;93.90;;;;;;5099323;28;19993;-84
2024/03/19 00:37:09;;;;;;;;;;;10.20;94.00;;;;;;5105065;28;19996;-85
2024/03/19 00:39:34;;;;;;;;;;;10.30;94.20;;;;;;5102347;28;20069;-85
2024/03/19 00:42:03;;;;;;;;;;;10.20;94.50;;;;;;5104692;28;20075;-83
2024/03/19 00:44:29;;;;;;;;;;;10.10;94.70;;;;;;5099248;28;19988;-84
2024/03/19 00:46:55;;;;;;;;;;;10.00;94.80;;;;;;5102069;28;20753;-84
2024/03/19 00:49:21;;;;;;;;;;;10.00;95.20;;;;;;5101661;28;20006;-82
2024/03/19 00:51:46;;;;;;;;;;;10.00;95.20;;;;;;5104946;28;20002;-81
2024/03/19 00:54:12;;;;;;;;;;;10.00;95.40;;;;;;5102015;28;19996;-82
2024/03/19 00:56:38;;;;;;;;;;;9.90;95.70;;;;;;5091729;28;20091;-81
2024/03/19 00:59:04;;;;;;;;;;;9.90;95.80;;;;;;5101058;28;20001;-81
2024/03/19 01:01:30;;;;;;;;;;;9.90;95.60;;;;;;5103441;28;20046;-81
2024/03/19 01:03:56;;;;;;;;;;;10.00;95.60;;;;;;5107467;28;19989;-81
2024/03/19 01:06:21;;;;;;;;;;;10.00;95.60;;;;;;5102903;28;20027;-80
2024/03/19 01:08:47;;;;;;;;;;;9.90;95.60;;;;;;5101398;28;20004;-80
2024/03/19 01:11:12;;;;;;;;;;;9.80;95.90;;;;;;5086369;28;20000;-81
2024/03/19 01:13:39;;;;;;;;;;;9.90;96.10;;;;;;5113554;27;19989;-81
2024/03/19 01:16:04;;;;;;;;;;;9.80;95.80;;;;;;5110170;27;20615;-81
2024/03/19 01:18:30;;;;;;;;;;;9.80;95.80;;;;;;5103380;27;19989;-81
2024/03/19 01:20:55;;;;;;;;;;;9.80;95.80;;;;;;5105706;27;19992;-82
2024/03/19 01:23:21;;;;;;;;;;;9.80;95.90;;;;;;5108318;27;20000;-81
2024/03/19 01:25:46;;;;;;;;;;;9.70;96.10;;;;;;5105877;27;19988;-82
2024/03/19 01:28:13;;;;;;;;;;;9.70;96.20;;;;;;5109438;27;20043;-82
2024/03/19 01:30:39;;;;;;;;;;;9.60;96.40;;;;;;5105964;27;19993;-82
2024/03/19 01:33:04;;;;;;;;;;;9.60;96.50;;;;;;5107313;27;20422;-81
2024/03/19 01:35:30;;;;;;;;;;;9.50;96.60;;;;;;5096491;28;19989;-81
2024/03/19 01:37:56;;;;;;;;;;;9.60;96.70;;;;;;5104058;28;20455;-81
2024/03/19 01:40:21;;;;;;;;;;;9.60;96.50;;;;;;5107669;27;20848;-80
2024/03/19 01:42:47;;;;;;;;;;;9.60;96.70;;;;;;5102642;27;20100;-80
2024/03/19 01:45:14;;;;;;;;;;;9.60;96.80;;;;;;5104908;27;19988;-81
2024/03/19 01:47:40;;;;;;;;;;;9.50;97.00;;;;;;5104720;28;20783;-80
2024/03/19 01:50:12;;;;;;;;;;;9.50;96.90;;;;;;5092071;27;19989;-80
2024/03/19 01:52:44;;;;;;;;;;;9.40;97.00;;;;;;5104635;28;19996;-80
2024/03/19 01:55:10;;;;;;;;;;;9.40;97.10;;;;;;5102244;28;20375;-81
2024/03/19 01:57:36;;;;;;;;;;;9.40;97.10;;;;;;5109544;27;19989;-80
2024/03/19 02:00:02;;;;;;;;;;;9.30;97.40;;;;;;5106188;27;19995;-81
2024/03/19 02:02:31;;;;;;;;;;;9.20;97.70;;;;;;5104932;27;19997;-80
2024/03/19 02:05:00;;;;;;;;;;;9.10;97.90;;;;;;5108814;27;20031;-80
2024/03/19 02:07:26;;;;;;;;;;;9.10;98.30;;;;;;5108929;27;20021;-80
2024/03/19 02:09:52;;;;;;;;;;;9.10;98.40;;;;;;5104355;27;19988;-80
2024/03/19 02:12:19;;;;;;;;;;;9.10;98.40;;;;;;5104733;27;19996;-79
2024/03/19 02:14:45;;;;;;;;;;;9.10;98.50;;;;;;5106950;27;20042;-79
2024/03/19 02:17:11;;;;;;;;;;;9.10;98.70;;;;;;5107193;27;19988;-80
2024/03/19 02:19:38;;;;;;;;;;;9.00;98.90;;;;;;5102106;27;20032;-80
2024/03/19 02:22:04;;;;;;;;;;;9.00;99.10;;;;;;5113749;27;20456;-79
2024/03/19 02:24:29;;;;;;;;;;;8.90;99.20;;;;;;5090984;28;20088;-82
2024/03/19 02:26:55;;;;;;;;;;;9.00;99.20;;;;;;5109160;27;20017;-81
2024/03/19 02:29:20;;;;;;;;;;;9.00;99.10;;;;;;5086440;28;19992;-81
2024/03/19 02:31:46;;;;;;;;;;;9.00;99.20;;;;;;5104153;27;19989;-81
2024/03/19 02:34:11;;;;;;;;;;;8.80;99.60;;;;;;5097873;28;19993;-81
2024/03/19 02:36:37;;;;;;;;;;;8.80;99.90;;;;;;5102748;27;20032;-81
2024/03/19 02:39:02;;;;;;;;;;;8.70;99.90;;;;;;5100414;28;19997;-82
2024/03/19 02:41:28;;;;;;;;;;;8.70;99.90;;;;;;5105020;27;19995;-81
2024/03/19 02:43:54;;;;;;;;;;;8.80;99.90;;;;;;5105810;27;19991;-81
2024/03/19 02:46:19;;;;;;;;;;;8.80;99.80;;;;;;5102046;27;20081;-81
2024/03/19 02:48:45;;;;;;;;;;;8.90;99.50;;;;;;5104218;28;20583;-81
2024/03/19 02:51:10;;;;;;;;;;;8.90;99.50;;;;;;5101498;27;20000;-80
2024/03/19 02:53:36;;;;;;;;;;;8.80;99.70;;;;;;5103135;27;19989;-81
2024/03/19 02:56:01;;;;;;;;;;;8.70;99.90;;;;;;5092154;28;19995;-81
2024/03/19 02:58:27;;;;;;;;;;;8.70;99.90;;;;;;5095720;28;20001;-80
2024/03/19 03:00:52;;;;;;;;;;;8.80;99.90;;;;;;5099327;28;19988;-80
2024/03/19 03:03:19;;;;;;;;;;;8.80;99.90;;;;;;5107880;27;20435;-80
2024/03/19 03:05:47;;;;;;;;;;;8.80;99.80;;;;;;5103714;27;20023;-81
2024/03/19 03:08:12;;;;;;;;;;;8.80;99.90;;;;;;5103108;28;20017;-81
2024/03/19 03:10:42;;;;;;;;;;;8.80;99.90;;;;;;5103103;27;19989;-81
2024/03/19 03:13:07;;;;;;;;;;;8.80;99.90;;;;;;5103101;28;20003;-80
2024/03/19 03:15:33;;;;;;;;;;;8.70;99.90;;;;;;5107395;27;20507;-81
2024/03/19 03:17:59;;;;;;;;;;;8.70;99.90;;;;;;5102642;28;19989;-80
2024/03/19 03:20:25;;;;;;;;;;;8.70;99.90;;;;;;5102991;28;20735;-80
2024/03/19 03:22:50;;;;;;;;;;;8.60;99.90;;;;;;5105169;27;20346;-79
2024/03/19 03:25:16;;;;;;;;;;;8.60;99.90;;;;;;5104349;27;20038;-81
2024/03/19 03:27:42;;;;;;;;;;;8.60;99.90;;;;;;5102998;27;20066;-81
2024/03/19 03:30:10;;;;;;;;;;;8.50;99.90;;;;;;5113433;27;19997;-80
2024/03/19 03:32:36;;;;;;;;;;;8.50;99.90;;;;;;5102642;28;19988;-79
2024/03/19 03:35:03;;;;;;;;;;;8.50;99.90;;;;;;5102515;28;19993;-79
2024/03/19 03:37:29;;;;;;;;;;;8.50;99.90;;;;;;5102428;28;20129;-78
2024/03/19 03:39:56;;;;;;;;;;;8.40;99.90;;;;;;5102686;28;20012;-79
2024/03/19 03:42:22;;;;;;;;;;;8.40;99.90;;;;;;5085848;28;19989;-79
2024/03/19 03:44:48;;;;;;;;;;;8.40;99.90;;;;;;5103052;27;20007;-79
2024/03/19 03:47:14;;;;;;;;;;;8.40;99.90;;;;;;5103701;28;20065;-79
2024/03/19 03:49:40;;;;;;;;;;;8.40;99.90;;;;;;5102418;28;19992;-79
2024/03/19 03:52:07;;;;;;;;;;;8.40;99.90;;;;;;5090481;28;20115;-79
2024/03/19 03:54:33;;;;;;;;;;;8.40;99.90;;;;;;5097081;28;20147;-79
2024/03/19 03:56:58;;;;;;;;;;;8.40;99.90;;;;;;5102275;28;20877;-78
2024/03/19 03:59:24;;;;;;;;;;;8.40;99.90;;;;;;5100096;27;19992;-79
2024/03/19 04:01:49;;;;;;;;;;;8.50;99.90;;;;;;5103951;27;20458;-79
2024/03/19 04:04:15;;;;;;;;;;;8.60;99.90;;;;;;5104717;27;19996;-81
2024/03/19 04:06:41;;;;;;;;;;;8.60;99.90;;;;;;5103030;27;20020;-80
2024/03/19 04:09:06;;;;;;;;;;;8.70;99.90;;;;;;5102041;28;20028;-79
2024/03/19 04:11:33;;;;;;;;;;;8.70;99.90;;;;;;5102393;28;19989;-79
2024/03/19 04:13:58;;;;;;;;;;;8.70;99.90;;;;;;5101370;28;20077;-81
2024/03/19 04:16:24;;;;;;;;;;;8.60;99.90;;;;;;5102419;28;20004;-81
2024/03/19 04:18:49;;;;;;;;;;;8.70;99.90;;;;;;5100226;28;19995;-80
2024/03/19 04:21:15;;;;;;;;;;;8.60;99.90;;;;;;5101515;28;20062;-81
2024/03/19 04:23:41;;;;;;;;;;;8.60;99.90;;;;;;5098607;28;19988;-80
2024/03/19 04:26:06;;;;;;;;;;;8.50;99.90;;;;;;5087564;28;19992;-80
2024/03/19 04:28:32;;;;;;;;;;;8.40;99.90;;;;;;5102141;28;19989;-80
2024/03/19 04:30:57;;;;;;;;;;;8.40;99.90;;;;;;5100434;28;19993;-80
2024/03/19 04:33:24;;;;;;;;;;;8.30;99.90;;;;;;5099816;28;20028;-79
2024/03/19 04:35:50;;;;;;;;;;;8.20;99.90;;;;;;5102597;28;19989;-80
2024/03/19 04:38:15;;;;;;;;;;;8.20;99.90;;;;;;5098671;28;19999;-80
2024/03/19 04:40:41;;;;;;;;;;;8.20;99.90;;;;;;5099419;28;19999;-80
2024/03/19 04:43:07;;;;;;;;;;;8.10;99.90;;;;;;5100257;28;19992;-81
2024/03/19 04:45:32;;;;;;;;;;;8.10;99.90;;;;;;5107401;27;20459;-79
2024/03/19 04:47:58;;;;;;;;;;;8.00;99.90;;;;;;5110368;27;20020;-79
2024/03/19 04:50:24;;;;;;;;;;;8.10;99.90;;;;;;5105781;27;20076;-80
2024/03/19 04:52:50;;;;;;;;;;;8.00;99.90;;;;;;5106768;27;19996;-79
2024/03/19 04:55:15;;;;;;;;;;;8.00;99.90;;;;;;5106214;27;20023;-80
2024/03/19 04:57:41;;;;;;;;;;;7.90;99.90;;;;;;5110638;27;20526;-81
2024/03/19 05:00:11;;;;;;;;;;;8.00;99.90;;;;;;5106700;27;20348;-80
2024/03/19 05:02:37;;;;;;;;;;;8.00;99.90;;;;;;5104703;27;19993;-78
2024/03/19 05:05:02;;;;;;;;;;;8.00;99.90;;;;;;5112285;27;20077;-78
2024/03/19 05:07:28;;;;;;;;;;;8.00;99.90;;;;;;5107059;27;20009;-78
2024/03/19 05:09:55;;;;;;;;;;;8.00;99.90;;;;;;5094910;27;19984;-78
2024/03/19 05:12:21;;;;;;;;;;;7.90;99.90;;;;;;5107958;27;20097;-80
2024/03/19 05:14:46;;;;;;;;;;;7.90;99.90;;;;;;5105962;28;20083;-80
2024/03/19 05:17:13;;;;;;;;;;;8.00;99.90;;;;;;5104955;28;20004;-78
2024/03/19 05:19:38;;;;;;;;;;;7.90;99.90;;;;;;5106976;27;20033;-80
2024/03/19 05:22:04;;;;;;;;;;;7.90;99.90;;;;;;5103182;27;20082;-79
2024/03/19 05:24:30;;;;;;;;;;;7.90;99.90;;;;;;5105222;27;20526;-79
2024/03/19 05:26:56;;;;;;;;;;;7.90;99.90;;;;;;5105195;27;20016;-79
2024/03/19 05:29:22;;;;;;;;;;;7.80;99.90;;;;;;5107642;27;19988;-78
2024/03/19 05:31:48;;;;;;;;;;;7.70;99.90;;;;;;5110164;27;20018;-78
2024/03/19 05:34:13;;;;;;;;;;;7.60;99.90;;;;;;5105073;27;20503;-78
2024/03/19 05:36:39;;;;;;;;;;;7.70;99.90;;;;;;5104853;28;19992;-79
2024/03/19 05:39:09;;;;;;;;;;;7.70;99.90;;;;;;5103302;27;19997;-78
2024/03/19 05:41:36;;;;;;;;;;;7.60;99.90;;;;;;5104711;28;20013;-80
2024/03/19 05:44:02;;;;;;;;;;;7.60;99.90;;;;;;5102740;27;20001;-76
2024/03/19 05:46:27;;;;;;;;;;;7.60;99.90;;;;;;5084361;28;20008;-78
2024/03/19 05:48:53;;;;;;;;;;;7.60;99.90;;;;;;5105624;27;20377;-77
2024/03/19 05:51:19;;;;;;;;;;;7.60;99.90;;;;;;5100204;28;20001;-77
2024/03/19 05:53:44;;;;;;;;;;;7.60;99.90;;;;;;5105622;27;19984;-77
2024/03/19 05:56:10;;;;;;;;;;;7.60;99.90;;;;;;5102948;28;19993;-77
2024/03/19 05:58:35;;;;;;;;;;;7.50;99.90;;;;;;5103864;27;19989;-77
2024/03/19 06:01:02;;;;;;;;;;;7.50;99.90;;;;;;5103487;28;20096;-78
2024/03/19 06:03:28;;;;;;;;;;;7.50;99.90;;;;;;5103801;28;20417;-79
2024/03/19 06:06:08;;;;;;;;;;;7.50;99.90;;;;;;5104944;27;20123;-77
2024/03/19 06:08:37;;;;;;;;;;;7.50;99.90;;;;;;5104184;28;20413;-77
2024/03/19 06:11:03;;;;;;;;;;;7.50;99.90;;;;;;5104050;28;20554;-76
2024/03/19 06:13:28;;;;;;;;;;;7.40;99.90;;;;;;5085875;28;19989;-76
2024/03/19 06:15:54;;;;;;;;;;;7.50;99.90;;;;;;5105810;27;20366;-77
2024/03/19 06:18:21;;;;;;;;;;;7.50;99.90;;;;;;5104717;28;20079;-76
2024/03/19 06:20:46;;;;;;;;;;;7.50;99.90;;;;;;5103966;28;20530;-76
2024/03/19 06:23:12;;;;;;;;;;;7.50;99.90;;;;;;5104353;28;20003;-78
2024/03/19 06:25:40;;;;;;;;;;;7.50;99.90;;;;;;5106231;27;19993;-78
2024/03/19 06:28:06;;;;;;;;;;;7.50;99.90;;;;;;5084029;28;20088;-78
2024/03/19 06:30:33;;;;;;;;;;;7.60;99.90;;;;;;5093588;27;19992;-78
2024/03/19 06:32:58;;;;;;;;;;;7.60;99.90;;;;;;5105292;27;19999;-79
2024/03/19 06:35:24;;;;;;;;;;;7.70;99.90;;;;;;5110013;27;20725;-78
2024/03/19 06:37:50;;;;;;;;;;;7.90;99.90;;;;;;5085338;28;19993;-78
2024/03/19 06:40:17;;;;;;;;;;;7.90;99.90;;;;;;5107512;27;20007;-79
2024/03/19 06:42:43;;;;;;;;;;;8.00;99.90;;;;;;5082647;28;20032;-79
2024/03/19 06:45:08;;;;;;;;;;;8.10;99.90;;;;;;5103493;27;20432;-79
2024/03/19 06:47:34;;;;;;;;;;;8.80;99.90;;;;;;5098652;28;20012;-78
2024/03/19 06:50:00;;;;;;;;;;;10.20;97.50;;;;;;5103749;28;19989;-78
2024/03/19 06:52:25;;;;;;;;;;;9.60;97.50;;;;;;5103499;28;19989;-79
2024/03/19 06:54:51;;;;;;;;;;;9.70;98.30;;;;;;5107880;27;20005;-78
2024/03/19 06:57:17;;;;;;;;;;;10.20;96.20;;;;;;5102673;28;20749;-79
2024/03/19 06:59:43;;;;;;;;;;;9.20;97.90;;;;;;5104202;27;20046;-78
2024/03/19 07:02:13;;;;;;;;;;;8.80;99.20;;;;;;5103360;28;20172;-77
2024/03/19 07:04:38;;;;;;;;;;;8.60;99.70;;;;;;5103634;27;19997;-77
2024/03/19 07:07:04;;;;;;;;;;;8.60;99.90;;;;;;5101809;28;20061;-77
2024/03/19 07:09:31;;;;;;;;;;;8.80;99.90;;;;;;5103233;28;19992;-77
2024/03/19 07:11:57;;;;;;;;;;;9.00;99.50;;;;;;5103602;28;20042;-78
2024/03/19 07:14:22;;;;;;;;;;;9.30;98.60;;;;;;5103919;27;19992;-78
2024/03/19 07:16:48;;;;;;;;;;;9.80;97.70;;;;;;5105953;27;20080;-78
2024/03/19 07:19:13;;;;;;;;;;;10.20;96.60;;;;;;5110339;27;20333;-79
2024/03/19 07:21:39;;;;;;;;;;;10.50;96.10;;;;;;5106822;27;20868;-77
2024/03/19 07:24:05;;;;;;;;;;;12.10;93.80;;;;;;5104312;27;19988;-79
2024/03/19 07:26:31;;;;;;;;;;;12.40;91.00;;;;;;5086951;28;20020;-79
2024/03/19 07:28:56;;;;;;;;;;;11.20;93.00;;;;;;5083931;28;19993;-79
2024/03/19 07:31:22;;;;;;;;;;;11.60;93.00;;;;;;5101415;28;19992;-79
2024/03/19 07:33:48;;;;;;;;;;;12.70;91.50;;;;;;5101826;28;20532;-78
2024/03/19 07:36:13;;;;;;;;;;;12.40;90.40;;;;;;5101837;28;19988;-78
2024/03/19 07:38:40;;;;;;;;;;;11.90;91.40;;;;;;5101638;28;19989;-78
2024/03/19 07:41:07;;;;;;;;;;;11.70;91.90;;;;;;5101544;28;19995;-79
2024/03/19 07:43:33;;;;;;;;;;;11.40;92.00;;;;;;5101817;28;20054;-79
2024/03/19 07:45:59;;;;;;;;;;;11.20;92.30;;;;;;5100643;28;20621;-78
2024/03/19 07:48:24;;;;;;;;;;;11.10;92.30;;;;;;5101629;28;20095;-79
2024/03/19 07:50:50;;;;;;;;;;;11.20;92.80;;;;;;5102361;28;19995;-78
2024/03/19 07:53:16;;;;;;;;;;;11.20;92.60;;;;;;5103745;27;19984;-78
2024/03/19 07:55:42;;;;;;;;;;;11.20;92.70;;;;;;5107060;27;20727;-79
2024/03/19 07:58:09;;;;;;;;;;;11.10;92.90;;;;;;5095909;28;20004;-78
2024/03/19 08:00:35;;;;;;;;;;;11.30;92.30;;;;;;5091031;28;19989;-78
2024/03/19 08:03:04;;;;;;;;;;;11.30;92.40;;;;;;5092577;28;20023;-78
2024/03/19 08:05:29;;;;;;;;;;;11.30;92.70;;;;;;5092977;28;20051;-78
2024/03/19 08:07:56;;;;;;;;;;;11.30;92.40;;;;;;5104388;27;20012;-79
2024/03/19 08:10:22;;;;;;;;;;;11.50;92.10;;;;;;5097336;28;19993;-79
2024/03/19 08:12:47;;;;;;;;;;;11.60;91.70;;;;;;5094124;28;20166;-78
2024/03/19 08:15:13;;;;;;;;;;;11.90;91.30;;;;;;5098798;28;20003;-78
2024/03/19 08:17:38;;;;;;;;;;;12.10;90.60;;;;;;5102925;28;20010;-79
2024/03/19 08:20:06;;;;;;;;;;;12.40;90.30;;;;;;5099442;28;20367;-78
2024/03/19 08:22:32;;;;;;;;;;;12.40;90.60;;;;;;5099797;28;19995;-79
2024/03/19 08:24:58;;;;;;;;;;;12.50;89.60;;;;;;5084396;28;19997;-79
2024/03/19 08:27:25;;;;;;;;;;;12.50;88.90;;;;;;5095941;28;20014;-79
2024/03/19 08:29:51;;;;;;;;;;;12.80;89.30;;;;;;5089761;28;19989;-79
2024/03/19 08:32:17;;;;;;;;;;;12.80;89.20;;;;;;5101916;28;19988;-78
2024/03/19 08:34:43;;;;;;;;;;;13.00;89.10;;;;;;5102680;28;20538;-78
2024/03/19 08:37:09;;;;;;;;;;;13.20;87.40;;;;;;5096370;28;20066;-79
2024/03/19 08:39:34;;;;;;;;;;;13.50;86.90;;;;;;5079549;28;20022;-78
2024/03/19 08:42:00;;;;;;;;;;;14.70;83.60;;;;;;5097236;28;19989;-78
2024/03/19 08:44:26;;;;;;;;;;;14.30;83.30;;;;;;5099016;28;19993;-78
2024/03/19 08:46:51;;;;;;;;;;;15.00;81.80;;;;;;5100087;28;20014;-79
2024/03/19 08:49:17;;;;;;;;;;;14.80;80.80;;;;;;5101939;28;19995;-78
2024/03/19 08:51:45;;;;;;;;;;;15.20;80.20;;;;;;5101667;28;19989;-79
2024/03/19 08:54:11;;;;;;;;;;;15.40;78.80;;;;;;5101902;28;20087;-78
2024/03/19 08:56:37;;;;;;;;;;;15.10;77.00;;;;;;5078688;28;20015;-79
2024/03/19 08:59:03;;;;;;;;;;;16.60;76.10;;;;;;5101728;28;20523;-79
2024/03/19 09:01:28;;;;;;;;;;;15.80;76.50;;;;;;5102255;28;20423;-79
2024/03/19 09:03:54;;;;;;;;;;;16.60;75.40;;;;;;5101852;28;19996;-79
2024/03/19 09:06:19;;;;;;;;;;;15.20;75.20;;;;;;5101554;28;20024;-78
2024/03/19 09:08:45;;;;;;;;;;;16.40;74.10;;;;;;5102655;28;19993;-78
2024/03/19 09:11:11;;;;;;;;;;;15.60;75.40;;;;;;5096921;28;19988;-78
2024/03/19 09:13:36;;;;;;;;;;;14.70;76.20;;;;;;5086506;28;20018;-78
2024/03/19 09:16:02;;;;;;;;;;;15.40;78.00;;;;;;5090709;28;19988;-78
2024/03/19 09:18:27;;;;;;;;;;;18.70;70.70;;;;;;5095253;28;19996;-78
2024/03/19 09:20:53;;;;;;;;;;;19.70;66.20;;;;;;5101304;28;19989;-79
2024/03/19 09:23:19;;;;;;;;;;;20.20;60.30;;;;;;5095566;28;20336;-79
2024/03/19 09:25:44;;;;;;;;;;;20.60;58.60;;;;;;5100388;28;20070;-78
2024/03/19 09:28:10;;;;;;;;;;;20.80;57.50;;;;;;5101788;28;20364;-79
2024/03/19 09:30:37;;;;;;;;;;;20.80;57.00;;;;;;5102567;28;19992;-79
2024/03/19 09:33:03;;;;;;;;;;;21.30;57.10;;;;;;5105088;28;20454;-78
2024/03/19 09:35:29;;;;;;;;;;;21.60;55.70;;;;;;5104591;28;20543;-79
2024/03/19 09:37:54;;;;;;;;;;;22.80;53.70;;;;;;5104395;28;20503;-79
2024/03/19 09:40:20;;;;;;;;;;;22.80;53.00;;;;;;5104560;28;19995;-79
2024/03/19 09:42:46;;;;;;;;;;;21.10;53.40;;;;;;5104222;28;20079;-79
2024/03/19 09:45:24;;;;;;;;;;;21.70;54.70;;;;;;5103960;28;20553;-79
2024/03/19 09:47:50;;;;;;;;;;;22.70;51.10;;;;;;5104583;28;20310;-79
2024/03/19 09:50:16;;;;;;;;;;;22.80;52.30;;;;;;5095482;28;20473;-79
2024/03/19 09:52:41;;;;;;;;;;;22.90;53.40;;;;;;5101738;28;19988;-79
2024/03/19 09:55:13;;;;;;;;;;;23.50;50.70;;;;;;5099543;28;19989;-79
2024/03/19 09:57:39;;;;;;;;;;;23.50;49.80;;;;;;5099788;28;20676;-79
2024/03/19 10:00:07;;;;;;;;;;;22.30;50.00;;;;;;5104308;28;20122;-78
2024/03/19 10:02:32;;;;;;;;;;;21.00;52.10;;;;;;5104307;28;19988;-79
2024/03/19 10:04:58;;;;;;;;;;;20.00;55.00;;;;;;5093702;28;19999;-79
2024/03/19 10:07:24;;;;;;;;;;;20.70;56.20;;;;;;5105610;27;20010;-79
2024/03/19 10:09:53;;;;;;;;;;;20.70;55.30;;;;;;5102330;28;20487;-79
2024/03/19 10:12:20;;;;;;;;;;;19.80;60.20;;;;;;5107043;27;19996;-79
2024/03/19 10:14:47;;;;;;;;;;;19.10;57.90;;;;;;5103967;28;19996;-79
2024/03/19 10:17:13;;;;;;;;;;;19.00;60.10;;;;;;5104154;28;19988;-79
2024/03/19 10:19:39;;;;;;;;;;;19.80;61.20;;;;;;5085873;28;20004;-79
2024/03/19 10:22:07;;;;;;;;;;;19.40;59.70;;;;;;5104409;28;19992;-79
2024/03/19 10:24:33;;;;;;;;;;;18.50;60.70;;;;;;5104033;28;20033;-79
2024/03/19 10:26:58;;;;;;;;;;;18.10;62.60;;;;;;5103979;28;20013;-79
2024/03/19 10:29:24;;;;;;;;;;;17.90;62.10;;;;;;5103748;28;20027;-79
2024/03/19 10:31:50;;;;;;;;;;;17.40;62.90;;;;;;5103964;28;19999;-79
2024/03/19 10:34:18;;;;;;;;;;;17.50;63.00;;;;;;5101570;28;20061;-78
2024/03/19 10:36:45;;;;;;;;;;;17.50;61.50;;;;;;5093553;28;20100;-79
2024/03/19 10:39:11;;;;;;;;;;;17.40;64.00;;;;;;5094998;28;20676;-79
2024/03/19 10:41:37;;;;;;;;;;;17.30;65.40;;;;;;5100429;28;20065;-79
2024/03/19 10:44:02;;;;;;;;;;;17.20;68.30;;;;;;5098596;28;19993;-79
2024/03/19 10:46:29;;;;;;;;;;;17.40;67.40;;;;;;5100556;28;20008;-79
2024/03/19 10:48:55;;;;;;;;;;;17.40;67.50;;;;;;5103614;28;20920;-79
2024/03/19 10:51:22;;;;;;;;;;;17.40;70.10;;;;;;5103684;28;19989;-79
2024/03/19 10:53:48;;;;;;;;;;;17.20;77.20;;;;;;5102805;28;20465;-79
2024/03/19 10:56:14;;;;;;;;;;;16.80;79.70;;;;;;5074511;28;20083;-79
2024/03/19 10:58:40;;;;;;;;;;;16.70;82.30;;;;;;5103214;28;19988;-79
2024/03/19 11:01:06;;;;;;;;;;;16.60;83.70;;;;;;5103663;28;20023;-79
2024/03/19 11:03:31;;;;;;;;;;;16.60;84.00;;;;;;5103930;27;19996;-80
2024/03/19 11:05:58;;;;;;;;;;;16.70;85.00;;;;;;5103228;28;20021;-79
2024/03/19 11:08:25;;;;;;;;;;;16.70;85.90;;;;;;5104347;27;20009;-79
2024/03/19 11:10:50;;;;;;;;;;;16.70;84.80;;;;;;5101251;28;20080;-79
2024/03/19 11:13:22;;;;;;;;;;;17.10;81.40;;;;;;5094871;28;19985;-79
2024/03/19 11:15:49;;;;;;;;;;;17.30;80.60;;;;;;5100768;28;19988;-79
2024/03/19 11:18:14;;;;;;;;;;;17.10;84.20;;;;;;5084452;28;19992;-79
2024/03/19 11:20:44;;;;;;;;;;;17.20;80.40;;;;;;5103177;28;20390;-79
2024/03/19 11:23:30;;;;;;;;;;;17.30;81.80;;;;;;5100004;28;19995;-79
2024/03/19 11:26:00;;;;;;;;;;;17.50;81.60;;;;;;5103145;28;19995;-80
2024/03/19 11:28:30;;;;;;;;;;;17.50;79.70;;;;;;5103199;28;20005;-79
2024/03/19 11:30:56;;;;;;;;;;;17.60;77.10;;;;;;5103307;28;20040;-79
2024/03/19 11:33:23;;;;;;;;;;;17.70;81.40;;;;;;5084428;28;19993;-79
2024/03/19 11:35:49;;;;;;;;;;;17.80;81.10;;;;;;5102837;28;20111;-79
2024/03/19 11:38:15;;;;;;;;;;;17.80;81.60;;;;;;5102531;28;20217;-79
2024/03/19 11:40:41;;;;;;;;;;;17.80;81.40;;;;;;5102838;28;20765;-79
2024/03/19 11:43:10;;;;;;;;;;;17.60;79.60;;;;;;5102241;28;20584;-79
2024/03/19 11:45:36;;;;;;;;;;;17.20;73.80;;;;;;5094503;28;20045;-79
2024/03/19 11:48:01;;;;;;;;;;;17.20;78.10;;;;;;5099271;28;20005;-79
2024/03/19 11:50:27;;;;;;;;;;;17.30;76.10;;;;;;5102767;28;19999;-79
2024/03/19 11:52:57;;;;;;;;;;;17.10;78.00;;;;;;5081548;28;19992;-79
2024/03/19 11:55:22;;;;;;;;;;;17.20;77.00;;;;;;5102785;28;19988;-79
2024/03/19 11:57:49;;;;;;;;;;;17.40;80.60;;;;;;5102839;28;20057;-79
2024/03/19 12:00:14;;;;;;;;;;;17.40;79.20;;;;;;5102897;28;20542;-79
2024/03/19 12:02:41;;;;;;;;;;;17.40;79.60;;;;;;5102868;28;19989;-79
2024/03/19 12:05:11;;;;;;;;;;;17.50;80.50;;;;;;5103205;28;19999;-79
2024/03/19 12:07:37;;;;;;;;;;;17.40;76.10;;;;;;5102840;28;20057;-79
2024/03/19 12:10:15;;;;;;;;;;;17.40;79.10;;;;;;5100969;28;20014;-80
2024/03/19 12:12:41;;;;;;;;;;;17.30;74.60;;;;;;5098905;28;20066;-79
2024/03/19 12:15:08;;;;;;;;;;;17.30;78.80;;;;;;5102907;28;20456;-79
2024/03/19 12:17:34;;;;;;;;;;;17.30;77.30;;;;;;5083634;28;20359;-79
2024/03/19 12:20:00;;;;;;;;;;;17.30;78.90;;;;;;5080515;28;20087;-79
2024/03/19 12:22:26;;;;;;;;;;;17.20;78.50;;;;;;5102364;28;20656;-79
2024/03/19 12:24:52;;;;;;;;;;;17.10;69.40;;;;;;5083749;28;20041;-79
2024/03/19 12:27:17;;;;;;;;;;;17.20;75.70;;;;;;5102280;28;20036;-79
2024/03/19 12:29:43;;;;;;;;;;;17.10;77.20;;;;;;5099842;28;20016;-79
2024/03/19 12:32:25;;;;;;;;;;;17.30;78.70;;;;;;5085973;28;20521;-79
2024/03/19 12:34:58;;;;;;;;;;;17.30;79.60;;;;;;5097071;28;20040;-79
2024/03/19 12:37:24;;;;;;;;;;;17.30;76.20;;;;;;5102435;28;19989;-79
2024/03/19 12:39:50;;;;;;;;;;;17.00;71.30;;;;;;5102557;28;20434;-79
2024/03/19 12:42:17;;;;;;;;;;;17.00;71.10;;;;;;5102228;28;19989;-79
2024/03/19 12:44:45;;;;;;;;;;;17.10;73.50;;;;;;5096554;28;19989;-79
2024/03/19 12:47:12;;;;;;;;;;;17.10;71.20;;;;;;5101830;28;20004;-79
2024/03/19 12:49:39;;;;;;;;;;;17.00;69.60;;;;;;5102241;28;19997;-79
2024/03/19 12:52:05;;;;;;;;;;;16.90;67.20;;;;;;5100708;28;20003;-79
2024/03/19 12:54:30;;;;;;;;;;;17.10;70.60;;;;;;5098123;28;19988;-79
2024/03/19 12:56:56;;;;;;;;;;;17.10;68.30;;;;;;5083130;28;20087;-79
2024/03/19 12:59:21;;;;;;;;;;;17.00;68.40;;;;;;5102259;28;20070;-79
2024/03/19 13:01:47;;;;;;;;;;;16.80;70.90;;;;;;5080518;28;20035;-80
2024/03/19 13:04:12;;;;;;;;;;;16.90;68.40;;;;;;5102121;28;19996;-80
2024/03/19 13:06:38;;;;;;;;;;;16.90;68.40;;;;;;5110979;27;20024;-79
2024/03/19 13:09:11;;;;;;;;;;;17.10;67.30;;;;;;5106612;27;19996;-79
2024/03/19 13:11:37;;;;;;;;;;;17.00;67.40;;;;;;5102533;28;19993;-79
2024/03/19 13:14:03;;;;;;;;;;;16.70;63.80;;;;;;5103795;28;20038;-80
2024/03/19 13:16:29;;;;;;;;;;;16.90;64.10;;;;;;5105980;28;20402;-79
2024/03/19 13:18:55;;;;;;;;;;;16.80;65.00;;;;;;5105625;28;19989;-79
2024/03/19 13:21:20;;;;;;;;;;;17.00;66.70;;;;;;5103973;28;19988;-79
2024/03/19 13:23:47;;;;;;;;;;;17.20;64.80;;;;;;5102299;28;19988;-79
2024/03/19 13:26:13;;;;;;;;;;;17.10;64.40;;;;;;5105091;28;20072;-79
2024/03/19 13:28:39;;;;;;;;;;;17.10;61.70;;;;;;5105334;28;20012;-79
2024/03/19 13:31:04;;;;;;;;;;;17.20;58.30;;;;;;5105725;28;20493;-79
2024/03/19 13:33:30;;;;;;;;;;;17.00;59.40;;;;;;5105603;28;20155;-80
2024/03/19 13:35:56;;;;;;;;;;;16.80;57.60;;;;;;5104931;28;20115;-79
2024/03/19 13:38:21;;;;;;;;;;;17.00;60.10;;;;;;5103030;28;19989;-79
2024/03/19 13:40:47;;;;;;;;;;;16.70;55.80;;;;;;5105828;28;20092;-79
2024/03/19 13:43:12;;;;;;;;;;;16.60;54.00;;;;;;5104724;28;20031;-79
2024/03/19 13:45:38;;;;;;;;;;;16.60;54.50;;;;;;5096549;28;20028;-79
2024/03/19 13:48:04;;;;;;;;;;;16.70;57.10;;;;;;5104948;28;20012;-79
2024/03/19 13:50:29;;;;;;;;;;;16.90;59.90;;;;;;5100741;28;20032;-79
2024/03/19 13:52:55;;;;;;;;;;;16.80;62.50;;;;;;5103860;28;20111;-79
2024/03/19 13:55:21;;;;;;;;;;;16.80;63.20;;;;;;5104632;28;19989;-79
2024/03/19 13:57:47;;;;;;;;;;;16.80;58.40;;;;;;5086277;28;20057;-79
2024/03/19 14:00:17;;;;;;;;;;;16.70;61.10;;;;;;5104684;28;20534;-79
2024/03/19 14:02:42;;;;;;;;;;;16.80;62.90;;;;;;5104500;28;19989;-79
2024/03/19 14:05:11;;;;;;;;;;;16.70;59.90;;;;;;5104489;28;20044;-79
2024/03/19 14:07:40;;;;;;;;;;;16.90;60.10;;;;;;5106560;27;20004;-79
2024/03/19 14:10:06;;;;;;;;;;;16.60;59.60;;;;;;5098249;28;20887;-79
2024/03/19 14:12:31;;;;;;;;;;;16.60;58.90;;;;;;5101139;28;19989;-79
2024/03/19 14:14:57;;;;;;;;;;;16.60;60.40;;;;;;5095189;28;19995;-79
2024/03/19 14:17:23;;;;;;;;;;;16.60;61.50;;;;;;5099654;28;19988;-80